Time;durP1;ratioP1;P1;durP2;ratioP2;P2;SDS_P1;SDS_P2;PMS_P1;PMS_P2;Temp;Humidity;BMP_temperature;BMP_pressure;BME280_temperature;BME280_humidity;BME280_pressure;Samples;Min_cycle;Max_cycle;Signal;HPM_P1;HPM_P2
2022/09/22 00:00:11;;;;;;;;;;;;;;;17.30;65.53;102211.94;1020017;29;670;-72
2022/09/22 00:01:02;;;;;;;;;;;;;;;17.28;65.70;102213.00;1020590;29;639;-72
2022/09/22 00:01:52;;;;;;;;;;;;;;;17.28;66.06;102205.78;1020548;29;667;-71
2022/09/22 00:02:43;;;;;;;;;;;;;;;17.28;65.54;102208.47;1020437;29;729;-71
2022/09/22 00:03:33;;;;;;;;;;;;;;;17.29;65.82;102206.66;1019727;29;773;-71
2022/09/22 00:04:23;;;;;;;;;;;;;;;17.29;65.43;102203.94;1020544;29;725;-71
2022/09/22 00:05:14;;;;;;;;;;;;;;;17.31;65.39;102210.09;1020535;29;723;-71
2022/09/22 00:06:05;;;;;;;;;;;;;;;17.29;65.57;102207.50;1020460;29;1670;-71
2022/09/22 00:06:56;;;;;;;;;;;;;;;17.29;65.48;102202.13;1021121;29;675;-71
2022/09/22 00:07:47;;;;;;;;;;;;;;;17.29;65.16;102212.03;1020496;29;891;-71
2022/09/22 00:08:37;;;;;;;;;;;;;;;17.29;65.98;102206.66;1020482;29;600;-71
2022/09/22 00:09:28;;;;;;;;;;;;;;;17.27;65.50;102203.19;1020569;29;651;-71
2022/09/22 00:10:20;;;;;;;;;;;;;;;17.27;65.45;102201.38;1021102;29;702;-71
2022/09/22 00:11:15;;;;;;;;;;;;;;;17.27;65.16;102203.19;1020417;29;599;-71
2022/09/22 00:12:06;;;;;;;;;;;;;;;17.28;65.54;102213.00;1020648;29;615;-71
2022/09/22 00:12:56;;;;;;;;;;;;;;;17.28;65.28;102202.22;1021145;29;694;-72
2022/09/22 00:13:47;;;;;;;;;;;;;;;17.28;65.78;102199.53;1019593;29;700;-71
2022/09/22 00:14:38;;;;;;;;;;;;;;;17.29;64.77;102201.25;1020562;29;758;-71
2022/09/22 00:15:29;;;;;;;;;;;;;;;17.26;64.87;102196.94;1021091;29;667;-71
2022/09/22 00:16:19;;;;;;;;;;;;;;;17.26;65.40;102196.09;1020456;29;631;-71
2022/09/22 00:17:11;;;;;;;;;;;;;;;17.25;65.29;102200.59;1021028;29;630;-71
2022/09/22 00:18:01;;;;;;;;;;;;;;;17.25;65.61;102205.13;1021158;29;784;-72
2022/09/22 00:18:51;;;;;;;;;;;;;;;17.25;65.12;102200.59;1016061;29;679;-72
2022/09/22 00:19:42;;;;;;;;;;;;;;;17.25;65.36;102199.75;1016701;29;647;-71
2022/09/22 00:20:32;;;;;;;;;;;;;;;17.24;65.42;102198.03;1020774;29;721;-71
2022/09/22 00:21:23;;;;;;;;;;;;;;;17.24;65.81;102193.50;1021260;29;657;-71
2022/09/22 00:22:13;;;;;;;;;;;;;;;17.25;64.91;102199.75;1016636;29;689;-71
2022/09/22 00:23:04;;;;;;;;;;;;;;;17.25;65.42;102191.66;1016631;29;588;-71
2022/09/22 00:23:54;;;;;;;;;;;;;;;17.24;65.38;102192.63;1016581;29;694;-71
2022/09/22 00:24:45;;;;;;;;;;;;;;;17.23;65.93;102197.16;1016643;29;1960;-71
2022/09/22 00:25:35;;;;;;;;;;;;;;;17.22;65.20;102191.88;1016544;29;714;-71
2022/09/22 00:26:26;;;;;;;;;;;;;;;17.24;65.39;102187.25;1016567;29;663;-71
2022/09/22 00:27:17;;;;;;;;;;;;;;;17.23;65.14;102193.59;1016169;29;647;-71
2022/09/22 00:28:08;;;;;;;;;;;;;;;17.22;65.49;102181.09;1016488;29;622;-71
2022/09/22 00:29:00;;;;;;;;;;;;;;;17.22;65.15;102181.97;1017548;29;662;-71
2022/09/22 00:29:50;;;;;;;;;;;;;;;17.22;65.61;102183.78;1017905;29;1623;-72
2022/09/22 00:30:41;;;;;;;;;;;;;;;17.21;65.69;102187.47;1020665;29;695;-71
2022/09/22 00:31:31;;;;;;;;;;;;;;;17.20;64.95;102188.44;1021868;28;673;-71
2022/09/22 00:32:22;;;;;;;;;;;;;;;17.21;65.58;102187.47;1017708;29;745;-72
2022/09/22 00:33:12;;;;;;;;;;;;;;;17.21;65.52;102185.63;1016575;29;608;-72
2022/09/22 00:34:03;;;;;;;;;;;;;;;17.22;65.63;102181.97;1017280;29;635;-71
2022/09/22 00:34:53;;;;;;;;;;;;;;;17.21;65.51;102188.31;1017313;29;675;-72
2022/09/22 00:35:44;;;;;;;;;;;;;;;17.21;64.87;102184.75;1017214;29;662;-71
2022/09/22 00:36:34;;;;;;;;;;;;;;;17.20;65.58;102177.66;1016475;29;722;-71
2022/09/22 00:37:25;;;;;;;;;;;;;;;17.19;65.42;102182.22;1016601;29;666;-71
2022/09/22 00:38:15;;;;;;;;;;;;;;;17.19;65.54;102178.66;1016663;29;1528;-71
2022/09/22 00:39:06;;;;;;;;;;;;;;;17.21;65.69;102179.38;1020469;29;639;-71
2022/09/22 00:39:57;;;;;;;;;;;;;;;17.20;65.24;102180.34;1019907;29;603;-71
2022/09/22 00:40:48;;;;;;;;;;;;;;;17.19;65.88;102173.25;1020478;29;710;-72
2022/09/22 00:41:39;;;;;;;;;;;;;;;17.18;65.14;102177.78;1020989;29;810;-71
2022/09/22 00:42:31;;;;;;;;;;;;;;;17.19;65.89;102189.44;1017292;29;730;-71
2022/09/22 00:43:21;;;;;;;;;;;;;;;17.19;65.68;102173.25;1016715;29;726;-71
2022/09/22 00:44:12;;;;;;;;;;;;;;;17.18;65.44;102172.41;1020401;29;665;-71
2022/09/22 00:45:02;;;;;;;;;;;;;;;17.18;65.57;102171.53;1020864;29;1871;-71
2022/09/22 00:45:53;;;;;;;;;;;;;;;17.19;65.00;102178.66;1020995;29;702;-71
2022/09/22 00:46:43;;;;;;;;;;;;;;;17.17;65.78;102176.06;1020893;29;1207;-72
2022/09/22 00:47:34;;;;;;;;;;;;;;;17.16;64.88;102174.34;1019868;29;611;-71
2022/09/22 00:48:24;;;;;;;;;;;;;;;17.18;65.08;102175.09;1019831;29;1622;-72
2022/09/22 00:49:14;;;;;;;;;;;;;;;17.17;65.09;102176.06;1020884;29;634;-72
2022/09/22 00:50:05;;;;;;;;;;;;;;;17.18;65.60;102171.53;1016124;29;620;-72
2022/09/22 00:50:55;;;;;;;;;;;;;;;17.15;65.22;102171.75;1016175;29;706;-72
2022/09/22 00:51:46;;;;;;;;;;;;;;;17.15;65.40;102171.75;1020383;29;675;-72
2022/09/22 00:52:36;;;;;;;;;;;;;;;17.12;65.22;102159.38;1019225;29;596;-71
2022/09/22 00:53:27;;;;;;;;;;;;;;;17.14;66.05;102173.59;1019228;29;615;-71
2022/09/22 00:54:17;;;;;;;;;;;;;;;17.12;65.64;102171.97;1020446;29;659;-72
2022/09/22 00:55:07;;;;;;;;;;;;;;;17.13;65.64;102173.69;1019294;29;650;-72
2022/09/22 00:55:58;;;;;;;;;;;;;;;17.13;65.47;102171.84;1016307;29;675;-71
2022/09/22 00:56:48;;;;;;;;;;;;;;;17.14;65.85;102170.88;1016698;29;628;-72
2022/09/22 00:57:39;;;;;;;;;;;;;;;17.15;65.83;102166.38;1020311;29;698;-72
2022/09/22 00:58:29;;;;;;;;;;;;;;;17.14;65.32;102168.19;1020982;29;623;-71
2022/09/22 00:59:20;;;;;;;;;;;;;;;17.14;65.63;102168.19;1020914;29;631;-72
2022/09/22 01:00:10;;;;;;;;;;;;;;;17.14;64.93;102165.50;1019243;29;1607;-71
2022/09/22 01:01:00;;;;;;;;;;;;;;;17.14;65.20;102172.72;1020326;29;703;-72
2022/09/22 01:01:51;;;;;;;;;;;;;;;17.15;65.33;102172.63;1019892;29;722;-72
2022/09/22 01:02:41;;;;;;;;;;;;;;;17.11;65.37;102171.09;1024587;29;678;-72
2022/09/22 01:03:32;;;;;;;;;;;;;;;17.11;65.08;102164.84;1024778;29;662;-72
2022/09/22 01:04:22;;;;;;;;;;;;;;;17.11;65.62;102163.03;1020415;29;714;-71
2022/09/22 01:05:13;;;;;;;;;;;;;;;17.11;66.00;102165.72;1021452;29;651;-71
2022/09/22 01:06:05;;;;;;;;;;;;;;;17.11;65.29;102165.72;1020139;29;1413;-72
2022/09/22 01:06:55;;;;;;;;;;;;;;;17.11;65.28;102168.41;1020293;29;580;-72
2022/09/22 01:07:46;;;;;;;;;;;;;;;17.10;65.00;102166.69;1019207;29;710;-72
2022/09/22 01:08:36;;;;;;;;;;;;;;;17.12;65.48;102161.19;1019903;29;635;-72
2022/09/22 01:09:27;;;;;;;;;;;;;;;17.09;65.12;102159.56;1020960;29;685;-72
2022/09/22 01:10:17;;;;;;;;;;;;;;;17.10;65.57;102157.75;1020956;29;694;-72
2022/09/22 01:11:08;;;;;;;;;;;;;;;17.11;65.50;102157.63;1020938;29;781;-72
2022/09/22 01:11:58;;;;;;;;;;;;;;;17.09;65.66;102156.88;1020811;29;633;-72
2022/09/22 01:12:50;;;;;;;;;;;;;;;17.09;65.39;102156.03;1020006;29;1459;-72
2022/09/22 01:13:41;;;;;;;;;;;;;;;17.08;65.03;102162.38;1016451;29;608;-72
2022/09/22 01:14:31;;;;;;;;;;;;;;;17.08;65.38;102160.53;1018888;29;1603;-72
2022/09/22 01:15:22;;;;;;;;;;;;;;;17.09;65.37;102159.56;1022327;29;654;-72
2022/09/22 01:16:12;;;;;;;;;;;;;;;17.07;64.96;102157.94;1021077;29;590;-72
2022/09/22 01:17:03;;;;;;;;;;;;;;;17.05;65.07;102154.50;1021172;29;702;-72
2022/09/22 01:17:53;;;;;;;;;;;;;;;17.06;65.74;102153.53;1021342;29;651;-72
2022/09/22 01:18:43;;;;;;;;;;;;;;;17.04;65.84;102152.78;1022463;29;651;-72
2022/09/22 01:19:34;;;;;;;;;;;;;;;17.06;65.58;102157.09;1025955;28;589;-72
2022/09/22 01:20:25;;;;;;;;;;;;;;;17.07;65.98;102160.66;1025937;28;622;-72
2022/09/22 01:21:18;;;;;;;;;;;;;;;17.06;65.34;102161.63;1021179;29;721;-72
2022/09/22 01:22:08;;;;;;;;;;;;;;;17.04;65.29;102159.03;1022385;29;638;-72
2022/09/22 01:22:59;;;;;;;;;;;;;;;17.05;65.42;102158.06;1021220;29;748;-72
2022/09/22 01:23:49;;;;;;;;;;;;;;;17.06;65.44;102158.94;1021759;29;645;-72
2022/09/22 01:24:40;;;;;;;;;;;;;;;17.06;65.85;102159.78;1020768;29;1906;-72
2022/09/22 01:25:30;;;;;;;;;;;;;;;17.06;65.84;102150.84;1021834;29;654;-73
2022/09/22 01:26:21;;;;;;;;;;;;;;;17.08;65.68;102152.47;1021704;29;677;-72
2022/09/22 01:27:11;;;;;;;;;;;;;;;17.08;65.90;102151.59;1021801;29;718;-72
2022/09/22 01:28:01;;;;;;;;;;;;;;;17.06;65.35;102156.22;1021679;29;650;-71
2022/09/22 01:28:52;;;;;;;;;;;;;;;17.05;65.31;102154.50;1021733;29;844;-71
2022/09/22 01:29:43;;;;;;;;;;;;;;;17.05;65.73;102154.50;1018069;29;752;-71
2022/09/22 01:30:33;;;;;;;;;;;;;;;17.04;65.58;102153.66;1017431;29;693;-72
2022/09/22 01:31:24;;;;;;;;;;;;;;;17.05;65.73;102154.50;1021050;29;567;-71
2022/09/22 01:32:16;;;;;;;;;;;;;;;17.04;64.89;102150.09;1021068;29;690;-72
2022/09/22 01:33:06;;;;;;;;;;;;;;;17.02;65.59;102148.38;1021175;29;544;-72
2022/09/22 01:33:56;;;;;;;;;;;;;;;17.04;66.07;102148.25;1017001;29;690;-72
2022/09/22 01:34:47;;;;;;;;;;;;;;;17.02;65.17;102151.06;1017407;29;615;-72
2022/09/22 01:35:37;;;;;;;;;;;;;;;17.04;65.31;102148.25;1021628;29;643;-72
2022/09/22 01:36:28;;;;;;;;;;;;;;;17.02;65.37;102152.88;1021721;29;618;-71
2022/09/22 01:37:18;;;;;;;;;;;;;;;17.02;65.75;102151.06;1017061;29;670;-72
2022/09/22 01:38:09;;;;;;;;;;;;;;;17.04;65.09;102150.09;1016657;29;638;-72
2022/09/22 01:38:59;;;;;;;;;;;;;;;17.00;65.81;102144.09;1021746;29;691;-72
2022/09/22 01:39:50;;;;;;;;;;;;;;;16.98;65.39;102148.72;1020857;29;647;-71
2022/09/22 01:40:41;;;;;;;;;;;;;;;17.00;65.10;102150.34;1017430;29;659;-72
2022/09/22 01:41:32;;;;;;;;;;;;;;;17.02;65.19;102150.19;1017726;29;643;-72
2022/09/22 01:42:23;;;;;;;;;;;;;;;17.02;65.59;102150.19;1017143;29;620;-72
2022/09/22 01:43:14;;;;;;;;;;;;;;;17.02;65.54;102143.97;1016558;29;651;-71
2022/09/22 01:44:04;;;;;;;;;;;;;;;17.00;65.03;102139.56;1017691;29;621;-72
2022/09/22 01:44:55;;;;;;;;;;;;;;;17.01;65.11;102151.19;1021636;29;1969;-71
2022/09/22 01:45:45;;;;;;;;;;;;;;;17.02;65.61;102145.66;1021666;29;686;-71
2022/09/22 01:46:36;;;;;;;;;;;;;;;17.00;65.10;102142.25;1021639;29;634;-71
2022/09/22 01:47:27;;;;;;;;;;;;;;;17.02;65.72;102144.81;1016707;29;722;-71
2022/09/22 01:48:17;;;;;;;;;;;;;;;17.02;64.95;102136.72;1017228;29;710;-70
2022/09/22 01:49:08;;;;;;;;;;;;;;;16.98;65.39;102137.94;1017198;29;564;-70
2022/09/22 01:49:58;;;;;;;;;;;;;;;16.99;65.02;102140.53;1020642;29;1737;-70
2022/09/22 01:50:49;;;;;;;;;;;;;;;16.98;65.60;102141.50;1021032;29;596;-70
2022/09/22 01:51:39;;;;;;;;;;;;;;;16.99;65.31;102139.66;1021084;29;631;-71
2022/09/22 01:52:29;;;;;;;;;;;;;;;16.97;65.13;102137.09;1020664;29;612;-70
2022/09/22 01:53:20;;;;;;;;;;;;;;;16.97;65.09;102136.22;1021652;29;650;-71
2022/09/22 01:54:10;;;;;;;;;;;;;;;16.98;65.60;102144.19;1020995;29;777;-70
2022/09/22 01:55:01;;;;;;;;;;;;;;;16.96;65.62;102135.34;1017625;29;686;-70
2022/09/22 01:55:51;;;;;;;;;;;;;;;16.99;65.21;102140.53;1017614;29;710;-71
2022/09/22 01:56:42;;;;;;;;;;;;;;;16.99;65.06;102135.16;1016402;29;1202;-71
2022/09/22 01:57:33;;;;;;;;;;;;;;;16.97;65.05;102134.38;1017664;29;687;-71
2022/09/22 01:58:23;;;;;;;;;;;;;;;16.96;65.23;102135.34;1016743;29;717;-71
2022/09/22 01:59:14;;;;;;;;;;;;;;;16.96;65.06;102129.09;1016521;29;733;-70
2022/09/22 02:00:04;;;;;;;;;;;;;;;16.95;65.51;102130.06;1016619;29;624;-71
2022/09/22 02:00:55;;;;;;;;;;;;;;;16.96;65.64;102127.28;1016504;29;623;-71
2022/09/22 02:01:45;;;;;;;;;;;;;;;16.96;65.35;102123.72;1020723;29;741;-71
2022/09/22 02:02:36;;;;;;;;;;;;;;;16.95;65.43;102127.38;1021284;29;627;-71
2022/09/22 02:03:27;;;;;;;;;;;;;;;16.96;64.91;102129.09;1018207;29;638;-71
2022/09/22 02:04:17;;;;;;;;;;;;;;;16.95;65.52;102119.31;1019084;29;1599;-71
2022/09/22 02:05:08;;;;;;;;;;;;;;;16.92;65.49;102117.69;1021489;29;1919;-71
2022/09/22 02:06:00;;;;;;;;;;;;;;;16.93;65.29;102115.84;1021386;29;1639;-71
2022/09/22 02:06:50;;;;;;;;;;;;;;;16.94;65.07;102115.75;1020544;29;643;-71
2022/09/22 02:07:41;;;;;;;;;;;;;;;16.92;64.98;102122.22;1021571;29;744;-71
2022/09/22 02:08:31;;;;;;;;;;;;;;;16.93;64.93;102114.03;1019746;29;745;-71
2022/09/22 02:09:22;;;;;;;;;;;;;;;16.93;65.09;102110.47;1021534;29;682;-71
2022/09/22 02:10:12;;;;;;;;;;;;;;;16.94;65.45;102114.88;1021595;29;646;-71
2022/09/22 02:11:03;;;;;;;;;;;;;;;16.95;64.91;102111.22;1021626;29;658;-71
2022/09/22 02:11:53;;;;;;;;;;;;;;;16.94;64.83;102118.44;1021588;29;663;-71
2022/09/22 02:12:44;;;;;;;;;;;;;;;16.93;65.23;102116.72;1021505;29;607;-71
2022/09/22 02:13:34;;;;;;;;;;;;;;;16.95;65.18;102112.09;1021541;29;645;-70
2022/09/22 02:14:25;;;;;;;;;;;;;;;16.92;65.03;102104.22;1020728;29;1626;-71
2022/09/22 02:16:26;;;;;;;;;;;;;;;16.90;64.96;102111.53;1021462;29;706;-71
2022/09/22 02:17:16;;;;;;;;;;;;;;;16.92;64.95;102106.06;1022104;29;619;-71
2022/09/22 02:18:07;;;;;;;;;;;;;;;16.91;65.21;102112.41;1020967;29;579;-71
2022/09/22 02:18:57;;;;;;;;;;;;;;;16.93;64.88;102105.09;1021122;29;607;-71
2022/09/22 02:19:49;;;;;;;;;;;;;;;16.91;65.39;102102.50;1020916;29;627;-71
2022/09/22 02:20:39;;;;;;;;;;;;;;;16.91;65.06;102107.88;1021508;29;744;-71
2022/09/22 02:21:30;;;;;;;;;;;;;;;16.92;65.05;102097.97;1021058;29;607;-71
2022/09/22 02:22:20;;;;;;;;;;;;;;;16.93;64.91;102105.94;1021549;29;796;-71
2022/09/22 02:23:11;;;;;;;;;;;;;;;16.93;65.23;102108.63;1021507;29;655;-71
2022/09/22 02:24:01;;;;;;;;;;;;;;;16.90;65.37;102110.69;1021331;29;1669;-71
2022/09/22 02:24:51;;;;;;;;;;;;;;;16.92;65.25;102104.22;1021388;29;1970;-71
2022/09/22 02:25:42;;;;;;;;;;;;;;;16.91;65.47;102099.81;1021580;29;685;-71
2022/09/22 02:26:32;;;;;;;;;;;;;;;16.89;64.98;102101.75;1021286;29;708;-71
2022/09/22 02:27:25;;;;;;;;;;;;;;;16.89;65.33;102099.06;1021369;29;631;-71
2022/09/22 02:28:16;;;;;;;;;;;;;;;16.91;64.89;102099.81;1020905;29;626;-71
2022/09/22 02:29:06;;;;;;;;;;;;;;;16.92;65.18;102104.22;1021474;29;603;-70
2022/09/22 02:29:57;;;;;;;;;;;;;;;16.91;65.38;102093.56;1020952;29;724;-70
2022/09/22 02:30:47;;;;;;;;;;;;;;;16.92;65.24;102100.66;1021405;29;671;-71
2022/09/22 02:31:38;;;;;;;;;;;;;;;16.92;65.25;102093.44;1019830;29;666;-71
2022/09/22 02:32:28;;;;;;;;;;;;;;;16.90;64.97;102094.53;1019953;29;627;-71
2022/09/22 02:33:18;;;;;;;;;;;;;;;16.87;65.20;102095.59;1019697;29;648;-71
2022/09/22 02:34:09;;;;;;;;;;;;;;;16.87;65.03;102098.31;1021304;29;1678;-71
2022/09/22 02:35:00;;;;;;;;;;;;;;;16.87;65.52;102095.59;1020818;29;690;-71
2022/09/22 02:35:51;;;;;;;;;;;;;;;16.87;65.31;102094.75;1021595;29;718;-71
2022/09/22 02:36:41;;;;;;;;;;;;;;;16.87;65.46;102094.75;1020821;29;635;-71
2022/09/22 02:37:32;;;;;;;;;;;;;;;16.87;65.09;102092.91;1020815;29;684;-71
2022/09/22 02:38:23;;;;;;;;;;;;;;;16.87;64.60;102092.91;1021928;29;625;-71
2022/09/22 02:39:13;;;;;;;;;;;;;;;16.88;64.80;102091.94;1020934;29;647;-71
2022/09/22 02:40:04;;;;;;;;;;;;;;;16.86;65.02;102085.81;1020798;29;623;-71
2022/09/22 02:40:54;;;;;;;;;;;;;;;16.86;65.53;102091.19;1020927;29;674;-71
2022/09/22 02:41:45;;;;;;;;;;;;;;;16.89;65.26;102095.50;1020800;29;623;-71
2022/09/22 02:42:35;;;;;;;;;;;;;;;16.87;65.13;102092.91;1021018;29;666;-71
2022/09/22 02:43:25;;;;;;;;;;;;;;;16.87;65.65;102086.66;1025056;29;686;-71
2022/09/22 02:44:16;;;;;;;;;;;;;;;16.86;65.04;102093.88;1024550;29;632;-71
2022/09/22 02:45:06;;;;;;;;;;;;;;;16.87;64.33;102087.53;1020949;29;1891;-71
2022/09/22 02:45:57;;;;;;;;;;;;;;;16.87;64.85;102098.31;1020589;29;1570;-71
2022/09/22 02:46:47;;;;;;;;;;;;;;;16.86;64.84;102090.34;1021342;29;1432;-71
2022/09/22 02:47:38;;;;;;;;;;;;;;;16.85;64.90;102089.47;1020846;29;686;-71
2022/09/22 02:48:28;;;;;;;;;;;;;;;16.86;65.01;102090.34;1020978;29;730;-71
2022/09/22 02:49:18;;;;;;;;;;;;;;;16.85;64.80;102089.47;1020882;29;729;-71
2022/09/22 02:50:09;;;;;;;;;;;;;;;16.85;64.63;102084.09;1020276;29;635;-70
2022/09/22 02:50:59;;;;;;;;;;;;;;;16.85;64.42;102088.59;1020761;29;666;-71
2022/09/22 02:51:50;;;;;;;;;;;;;;;16.83;64.92;102083.34;1020840;29;643;-71
2022/09/22 02:52:40;;;;;;;;;;;;;;;16.85;64.80;102088.59;1020468;29;602;-70
2022/09/22 02:53:31;;;;;;;;;;;;;;;16.83;65.25;102091.44;1020284;29;783;-71
2022/09/22 02:54:21;;;;;;;;;;;;;;;16.81;65.07;102093.38;1020388;29;639;-71
2022/09/22 02:55:12;;;;;;;;;;;;;;;16.80;64.60;102091.66;1020206;29;611;-71
2022/09/22 02:56:02;;;;;;;;;;;;;;;16.83;65.39;102087.88;1020329;29;662;-71
2022/09/22 02:56:52;;;;;;;;;;;;;;;16.83;64.81;102088.75;1020194;29;710;-71
2022/09/22 02:57:43;;;;;;;;;;;;;;;16.83;65.29;102087.88;1020030;29;1606;-71
2022/09/22 02:58:33;;;;;;;;;;;;;;;16.83;65.06;102090.56;1021326;29;619;-71
2022/09/22 02:59:24;;;;;;;;;;;;;;;16.83;64.78;102090.56;1021365;29;623;-71
2022/09/22 03:00:14;;;;;;;;;;;;;;;16.79;65.00;102081.84;1021345;29;686;-71
2022/09/22 03:01:05;;;;;;;;;;;;;;;16.81;64.56;102082.59;1021331;29;634;-71
2022/09/22 03:01:55;;;;;;;;;;;;;;;16.83;64.72;102090.56;1021425;29;687;-70
2022/09/22 03:02:46;;;;;;;;;;;;;;;16.84;64.85;102087.75;1021305;29;589;-71
2022/09/22 03:03:36;;;;;;;;;;;;;;;16.83;64.65;102085.19;1021421;29;806;-71
2022/09/22 03:04:26;;;;;;;;;;;;;;;16.82;64.97;102083.47;1020755;29;760;-71
2022/09/22 03:05:17;;;;;;;;;;;;;;;16.83;64.50;102086.06;1019753;29;576;-70
2022/09/22 03:06:07;;;;;;;;;;;;;;;16.82;64.50;102087.03;1021402;29;710;-70
2022/09/22 03:06:58;;;;;;;;;;;;;;;16.83;64.42;102085.19;1021263;29;686;-70
2022/09/22 03:07:48;;;;;;;;;;;;;;;16.81;65.12;102082.59;1021449;29;591;-70
2022/09/22 03:08:38;;;;;;;;;;;;;;;16.80;64.88;102080.88;1021361;29;664;-70
2022/09/22 03:09:29;;;;;;;;;;;;;;;16.82;64.72;102078.94;1021321;29;694;-70
2022/09/22 03:10:19;;;;;;;;;;;;;;;16.79;64.93;102079.16;1016975;29;601;-69
2022/09/22 03:11:10;;;;;;;;;;;;;;;16.79;65.22;102079.16;1017413;29;690;-70
2022/09/22 03:12:00;;;;;;;;;;;;;;;16.82;64.99;102075.38;1024202;29;1715;-70
2022/09/22 03:12:51;;;;;;;;;;;;;;;16.78;64.82;102082.81;1024364;29;683;-72
2022/09/22 03:13:41;;;;;;;;;;;;;;;16.77;64.94;102078.41;1020452;29;669;-71
2022/09/22 03:14:31;;;;;;;;;;;;;;;16.76;64.59;102075.81;1020765;29;717;-71
2022/09/22 03:15:22;;;;;;;;;;;;;;;16.79;64.67;102081.84;1020747;29;639;-71
2022/09/22 03:16:12;;;;;;;;;;;;;;;16.76;64.70;102078.50;1020411;29;618;-72
2022/09/22 03:17:03;;;;;;;;;;;;;;;16.79;64.65;102081.00;1020659;29;644;-71
2022/09/22 03:17:53;;;;;;;;;;;;;;;16.75;65.14;102077.66;1020811;29;694;-71
2022/09/22 03:18:43;;;;;;;;;;;;;;;16.73;65.17;102076.91;1020722;29;682;-71
2022/09/22 03:19:34;;;;;;;;;;;;;;;16.75;65.51;102080.34;1020483;29;654;-71
2022/09/22 03:20:24;;;;;;;;;;;;;;;16.75;64.76;102077.66;1020619;29;607;-71
2022/09/22 03:21:15;;;;;;;;;;;;;;;16.80;64.89;102077.31;1020128;29;567;-71
2022/09/22 03:22:05;;;;;;;;;;;;;;;16.79;65.28;102076.47;1020592;29;1591;-70
2022/09/22 03:22:56;;;;;;;;;;;;;;;16.77;64.70;102081.09;1021291;29;615;-70
2022/09/22 03:23:46;;;;;;;;;;;;;;;16.74;64.73;102081.31;1021370;29;701;-70
2022/09/22 03:24:36;;;;;;;;;;;;;;;16.75;64.42;102074.09;1021289;29;650;-70
2022/09/22 03:25:27;;;;;;;;;;;;;;;16.73;64.90;102082.28;1019651;29;698;-70
2022/09/22 03:26:17;;;;;;;;;;;;;;;16.73;64.66;102084.97;1021262;29;701;-70
2022/09/22 03:27:08;;;;;;;;;;;;;;;16.74;64.83;102081.31;1021298;29;627;-72
2022/09/22 03:27:58;;;;;;;;;;;;;;;16.73;64.77;102084.09;1021264;29;633;-72
2022/09/22 03:28:49;;;;;;;;;;;;;;;16.73;64.84;102074.19;1021346;29;658;-70
2022/09/22 03:29:39;;;;;;;;;;;;;;;16.73;64.98;102074.19;1021247;29;563;-72
2022/09/22 03:30:30;;;;;;;;;;;;;;;16.71;64.74;102077.97;1021265;29;666;-72
2022/09/22 03:31:20;;;;;;;;;;;;;;;16.73;65.13;102078.72;1021195;29;678;-72
2022/09/22 03:32:10;;;;;;;;;;;;;;;16.72;65.02;102071.63;1021332;29;686;-72
2022/09/22 03:33:01;;;;;;;;;;;;;;;16.74;65.17;102080.44;1021256;29;650;-72
2022/09/22 03:33:51;;;;;;;;;;;;;;;16.70;64.50;102066.34;1020751;29;638;-72
2022/09/22 03:34:42;;;;;;;;;;;;;;;16.70;64.63;102070.84;1016329;29;612;-72
2022/09/22 03:35:32;;;;;;;;;;;;;;;16.70;64.65;102066.34;1016919;29;675;-72
2022/09/22 03:36:22;;;;;;;;;;;;;;;16.72;64.59;102067.09;1016717;29;631;-71
2022/09/22 03:37:13;;;;;;;;;;;;;;;16.74;64.36;102064.28;1016756;29;623;-71
2022/09/22 03:38:03;;;;;;;;;;;;;;;16.74;64.97;102062.47;1020363;29;662;-72
2022/09/22 03:38:54;;;;;;;;;;;;;;;16.74;64.87;102066.97;1021073;29;624;-72
2022/09/22 03:39:44;;;;;;;;;;;;;;;16.76;64.71;102068.59;1017525;29;667;-71
2022/09/22 03:40:35;;;;;;;;;;;;;;;16.73;64.70;102068.81;1016750;29;640;-70
2022/09/22 03:41:25;;;;;;;;;;;;;;;16.72;64.46;102066.22;1016489;29;703;-71
2022/09/22 03:42:16;;;;;;;;;;;;;;;16.70;64.95;102060.94;1016652;29;641;-71
2022/09/22 03:43:06;;;;;;;;;;;;;;;16.71;65.00;102068.06;1017666;29;1452;-71
2022/09/22 03:43:57;;;;;;;;;;;;;;;16.69;65.18;102067.31;1021207;29;682;-71
2022/09/22 03:44:47;;;;;;;;;;;;;;;16.69;64.74;102066.44;1021271;29;1903;-73
2022/09/22 03:45:38;;;;;;;;;;;;;;;16.66;65.06;102057.63;1020637;29;575;-71
2022/09/22 03:46:29;;;;;;;;;;;;;;;16.69;64.41;102063.75;1020694;29;635;-71
2022/09/22 03:47:19;;;;;;;;;;;;;;;16.64;65.17;102069.50;1021174;29;662;-71
2022/09/22 03:48:10;;;;;;;;;;;;;;;16.65;64.70;102061.31;1019466;29;621;-71
2022/09/22 03:49:02;;;;;;;;;;;;;;;16.71;64.93;102065.38;1020603;29;651;-71
2022/09/22 03:49:53;;;;;;;;;;;;;;;16.72;64.41;102069.78;1020047;29;646;-71
2022/09/22 03:50:43;;;;;;;;;;;;;;;16.74;64.50;102069.69;1020765;29;674;-70
2022/09/22 03:51:33;;;;;;;;;;;;;;;16.71;64.55;102069.88;1020238;29;632;-71
2022/09/22 03:52:24;;;;;;;;;;;;;;;16.70;64.64;102069.03;1020591;29;611;-70
2022/09/22 03:53:15;;;;;;;;;;;;;;;16.65;64.94;102064.00;1016753;29;644;-71
2022/09/22 03:54:05;;;;;;;;;;;;;;;16.67;64.99;102066.53;1017196;29;717;-71
2022/09/22 03:54:56;;;;;;;;;;;;;;;16.68;64.63;102060.19;1016639;29;636;-71
2022/09/22 03:55:46;;;;;;;;;;;;;;;16.69;65.08;102064.63;1016784;29;615;-71
2022/09/22 03:56:37;;;;;;;;;;;;;;;16.65;64.69;102068.53;1016341;29;1122;-71
2022/09/22 03:57:27;;;;;;;;;;;;;;;16.66;64.48;102063.00;1017255;29;647;-71
2022/09/22 03:58:21;;;;;;;;;;;;;;;16.66;65.01;102067.50;1016647;29;901;-71
2022/09/22 03:59:11;;;;;;;;;;;;;;;16.66;64.99;102063.00;1016741;29;651;-71
2022/09/22 04:00:02;;;;;;;;;;;;;;;16.66;65.00;102067.50;1016721;29;571;-71
2022/09/22 04:00:52;;;;;;;;;;;;;;;16.67;65.00;102072.78;1016700;29;592;-71
2022/09/22 04:01:43;;;;;;;;;;;;;;;16.68;64.39;102068.28;1017147;29;631;-71
2022/09/22 04:02:33;;;;;;;;;;;;;;;16.67;64.38;102063.84;1016713;29;706;-71
2022/09/22 04:03:24;;;;;;;;;;;;;;;16.69;64.38;102074.53;1016679;29;638;-71
2022/09/22 04:04:14;;;;;;;;;;;;;;;16.66;64.16;102062.13;1016649;29;742;-71
2022/09/22 04:05:05;;;;;;;;;;;;;;;16.66;64.33;102065.69;1021080;29;1906;-72
2022/09/22 04:05:55;;;;;;;;;;;;;;;16.67;64.65;102066.53;1021150;29;659;-72
2022/09/22 04:06:46;;;;;;;;;;;;;;;16.67;64.68;102069.25;1021069;29;693;-72
2022/09/22 04:07:36;;;;;;;;;;;;;;;16.66;64.50;102063.00;1021102;29;635;-72
2022/09/22 04:08:26;;;;;;;;;;;;;;;16.64;64.68;102061.41;1021143;29;638;-72
2022/09/22 04:09:17;;;;;;;;;;;;;;;16.63;64.83;102065.06;1021039;29;663;-71
2022/09/22 04:10:07;;;;;;;;;;;;;;;16.62;64.44;102057.94;1021154;29;579;-71
2022/09/22 04:10:59;;;;;;;;;;;;;;;16.64;64.25;102061.41;1021068;29;655;-70
2022/09/22 04:11:50;;;;;;;;;;;;;;;16.62;64.62;102058.78;1017416;29;638;-70
2022/09/22 04:12:40;;;;;;;;;;;;;;;16.62;64.84;102060.63;1016450;29;635;-70
2022/09/22 04:13:31;;;;;;;;;;;;;;;16.63;64.61;102057.84;1020515;29;761;-70
2022/09/22 04:14:22;;;;;;;;;;;;;;;16.63;64.44;102051.63;1020476;29;662;-70
2022/09/22 04:15:12;;;;;;;;;;;;;;;16.63;64.94;102054.31;1021067;29;775;-71
2022/09/22 04:16:03;;;;;;;;;;;;;;;16.64;64.38;102053.34;1021199;29;674;-71
2022/09/22 04:16:53;;;;;;;;;;;;;;;16.65;64.54;102050.53;1017707;29;540;-71
2022/09/22 04:17:44;;;;;;;;;;;;;;;16.63;64.88;102051.63;1016148;29;709;-71
2022/09/22 04:18:34;;;;;;;;;;;;;;;16.62;64.83;102048.03;1019781;29;1612;-71
2022/09/22 04:19:25;;;;;;;;;;;;;;;16.61;64.70;102048.13;1020449;29;631;-71
2022/09/22 04:20:15;;;;;;;;;;;;;;;16.60;64.55;102046.41;1020733;29;651;-71
2022/09/22 04:21:06;;;;;;;;;;;;;;;16.60;64.88;102051.78;1020480;29;635;-71
2022/09/22 04:21:56;;;;;;;;;;;;;;;16.62;64.33;102045.34;1025149;28;733;-71
2022/09/22 04:22:47;;;;;;;;;;;;;;;16.64;64.45;102047.97;1024116;29;599;-71
2022/09/22 04:23:37;;;;;;;;;;;;;;;16.65;64.28;102047.00;1020615;29;674;-71
2022/09/22 04:24:27;;;;;;;;;;;;;;;16.64;64.44;102053.34;1021047;29;737;-71
2022/09/22 04:25:18;;;;;;;;;;;;;;;16.62;64.34;102049.84;1020392;29;653;-71
2022/09/22 04:26:08;;;;;;;;;;;;;;;16.62;64.29;102047.16;1020554;29;743;-71
2022/09/22 04:26:59;;;;;;;;;;;;;;;16.61;64.81;102042.75;1020456;29;640;-71